Terminal Aerodrome Forecast
Issued by NWS Sioux Falls, SD

Home | Current Version | Previous Version | Text Only | Print | Product List | Glossary On
Versions: 1 2 3 4 5 6 7 8 9 10 11 12 13 14 15 16 17 18 19
021
FTUS43 KFSD 240520
TAFFSD
TAF
KFSD 240520Z 2406/2506 04008KT P6SM -RA VCTS OVC020CB
     FM240800 03009KT 4SM -SHRA BR OVC015
     FM241100 02013G21KT 4SM -SHRA OVC008
     FM241700 03017G26KT 5SM BR OVC012
     FM242100 02017G25KT P6SM OVC025
     FM250200 03014KT P6SM OVC015=

USA.gov is the U.S. government's official web portal to all federal, state and local government web resources and services.